Webcam Flughafen St.Gallen-Altenrhein

Live-Bilder und Zeitraffer LSZR / ACH.

 

Live aus Altenrhein
LIVE
LSZR 090850Z 27005KT 240V300 CAVOK 22/17 Q1020 NOSIG RMK B
Zeitraffer heute
2020-08-09 00:14:26
LSZR 082150Z AUTO VRB01KT CAVOK 19/16 Q1020